createdAt,value
2023-03-15T00:01:46.724Z,0.00
2023-03-15T00:04:14.037Z,0.00
2023-03-15T00:06:41.036Z,0.00
2023-03-15T00:09:07.712Z,0.10
2023-03-15T00:11:34.452Z,0.03
2023-03-15T00:14:02.499Z,0.00
2023-03-15T00:16:29.443Z,0.10
2023-03-15T00:18:56.320Z,0.10
2023-03-15T00:21:23.560Z,0.10
2023-03-15T00:23:50.290Z,0.10
2023-03-15T00:26:17.316Z,0.10
2023-03-15T00:28:43.923Z,0.15
2023-03-15T00:31:20.729Z,0.10
2023-03-15T00:33:47.942Z,0.10
2023-03-15T00:36:15.280Z,0.10
2023-03-15T00:38:45.884Z,0.10
2023-03-15T00:41:15.380Z,0.10
2023-03-15T00:43:42.431Z,0.10
2023-03-15T00:46:09.839Z,0.20
2023-03-15T00:48:36.906Z,0.20
2023-03-15T00:51:07.021Z,0.30
2023-03-15T00:53:34.372Z,0.20
2023-03-15T00:56:09.117Z,0.40
2023-03-15T00:58:35.720Z,0.40
2023-03-15T01:01:13.237Z,0.55
2023-03-15T01:03:40.913Z,0.33
2023-03-15T01:06:13.548Z,0.38
2023-03-15T01:08:41.316Z,0.30
2023-03-15T01:11:11.046Z,0.38
2023-03-15T01:13:38.018Z,0.60
2023-03-15T01:16:05.290Z,0.30
2023-03-15T01:18:32.191Z,0.30
2023-03-15T01:20:59.591Z,0.40
2023-03-15T01:23:26.555Z,0.40
2023-03-15T01:25:53.117Z,0.40
2023-03-15T01:28:19.570Z,0.40
2023-03-15T01:30:51.004Z,0.20
2023-03-15T01:33:17.860Z,0.40
2023-03-15T01:35:44.682Z,0.20
2023-03-15T01:38:11.633Z,0.50
2023-03-15T01:40:45.801Z,0.40
2023-03-15T01:43:18.304Z,0.30
2023-03-15T01:46:03.593Z,0.30
2023-03-15T01:48:44.829Z,0.30
2023-03-15T01:51:21.793Z,0.17
2023-03-15T01:54:01.192Z,0.30
2023-03-15T01:56:28.842Z,0.30
2023-03-15T01:58:58.048Z,0.20
2023-03-15T02:01:25.442Z,0.20
2023-03-15T02:03:58.508Z,0.20
2023-03-15T02:06:25.887Z,0.20
2023-03-15T02:09:02.571Z,0.20
2023-03-15T02:11:29.280Z,0.20
2023-03-15T02:13:57.878Z,0.22
2023-03-15T02:16:25.219Z,0.20
2023-03-15T02:18:51.702Z,0.30
2023-03-15T02:21:31.691Z,0.20
2023-03-15T02:24:04.618Z,0.10
2023-03-15T02:26:54.232Z,0.20
2023-03-15T02:29:23.741Z,0.45
2023-03-15T02:31:50.458Z,0.30
2023-03-15T02:34:17.054Z,0.10
2023-03-15T02:36:43.613Z,0.30
2023-03-15T02:39:19.124Z,0.40
2023-03-15T02:41:51.301Z,0.20
2023-03-15T02:44:24.620Z,0.30
2023-03-15T02:46:53.801Z,0.20
2023-03-15T02:49:25.867Z,0.40
2023-03-15T02:51:52.381Z,0.20
2023-03-15T02:54:18.924Z,0.38
2023-03-15T02:56:45.430Z,0.20
2023-03-15T02:59:12.898Z,0.20
2023-03-15T03:01:39.906Z,0.20
2023-03-15T03:04:06.995Z,0.30
2023-03-15T03:06:33.492Z,0.20
2023-03-15T03:09:00.023Z,0.30
2023-03-15T03:11:26.532Z,0.20
2023-03-15T03:13:52.978Z,0.30
2023-03-15T03:16:19.782Z,0.35
2023-03-15T03:18:46.340Z,0.20
2023-03-15T03:21:14.805Z,0.10
2023-03-15T03:23:41.263Z,0.30
2023-03-15T03:26:17.312Z,0.20
2023-03-15T03:28:46.412Z,0.50
2023-03-15T03:31:18.665Z,0.30
2023-03-15T03:33:45.290Z,0.30
2023-03-15T03:36:13.130Z,0.20
2023-03-15T03:38:42.000Z,0.30
2023-03-15T03:41:10.031Z,0.20
2023-03-15T03:43:37.201Z,0.30
2023-03-15T03:46:04.163Z,0.30
2023-03-15T03:48:31.185Z,0.30
2023-03-15T03:50:58.892Z,0.52
2023-03-15T03:53:25.782Z,0.30
2023-03-15T03:55:54.514Z,0.22
2023-03-15T03:58:21.580Z,0.27
2023-03-15T04:00:48.473Z,0.38
2023-03-15T04:03:15.024Z,0.30
2023-03-15T04:05:41.988Z,0.20
2023-03-15T04:08:08.690Z,0.40
2023-03-15T04:10:35.136Z,0.30
2023-03-15T04:13:01.919Z,0.20
2023-03-15T04:15:28.460Z,0.30
2023-03-15T04:17:57.745Z,0.50
2023-03-15T04:20:26.224Z,0.22
2023-03-15T04:22:53.324Z,0.40
2023-03-15T04:25:20.738Z,0.60
2023-03-15T04:27:58.853Z,0.40
2023-03-15T04:30:29.281Z,0.30
2023-03-15T04:32:59.092Z,0.40
2023-03-15T04:35:30.756Z,0.27
2023-03-15T04:37:57.576Z,0.38
2023-03-15T04:40:25.361Z,0.38
2023-03-15T04:42:55.467Z,0.30
2023-03-15T04:45:26.081Z,0.38
2023-03-15T04:47:53.546Z,0.40
2023-03-15T04:50:21.357Z,0.50
2023-03-15T04:52:48.715Z,0.35
2023-03-15T04:55:15.730Z,0.30
2023-03-15T04:57:42.162Z,0.38
2023-03-15T05:00:10.187Z,0.37
2023-03-15T05:02:40.054Z,0.30
2023-03-15T05:05:10.354Z,0.40
2023-03-15T05:07:38.048Z,0.28
2023-03-15T05:10:06.587Z,0.30
2023-03-15T05:12:36.432Z,0.37
2023-03-15T05:15:03.130Z,0.40
2023-03-15T05:17:29.672Z,0.30
2023-03-15T05:19:56.138Z,0.82
2023-03-15T05:22:25.758Z,0.60
2023-03-15T05:24:53.704Z,0.60
2023-03-15T05:27:20.765Z,0.65
2023-03-15T05:29:47.828Z,0.40
2023-03-15T05:32:14.354Z,0.35
2023-03-15T05:34:42.742Z,0.57
2023-03-15T05:37:09.501Z,0.50
2023-03-15T05:39:36.210Z,0.50
2023-03-15T05:42:02.731Z,0.40
2023-03-15T05:44:29.285Z,0.65
2023-03-15T05:46:55.843Z,0.85
2023-03-15T05:49:22.537Z,0.47
2023-03-15T05:51:49.005Z,0.60
2023-03-15T05:54:15.641Z,0.50
2023-03-15T05:56:42.065Z,0.40
2023-03-15T05:59:08.520Z,0.50
2023-03-15T06:01:35.011Z,0.30
2023-03-15T06:04:01.728Z,0.40
2023-03-15T06:06:28.246Z,0.60
2023-03-15T06:08:55.207Z,0.60
2023-03-15T06:11:22.033Z,0.60
2023-03-15T06:13:48.553Z,0.50
2023-03-15T06:16:15.117Z,0.90
2023-03-15T06:18:41.619Z,0.50
2023-03-15T06:21:08.273Z,0.80
2023-03-15T06:23:34.815Z,0.57
2023-03-15T06:26:01.425Z,0.30
2023-03-15T06:28:27.869Z,0.40
2023-03-15T06:30:54.543Z,0.50
2023-03-15T06:33:21.556Z,0.38
2023-03-15T06:35:48.103Z,0.30
2023-03-15T06:38:15.216Z,0.43
2023-03-15T06:40:41.748Z,0.55
2023-03-15T06:43:08.848Z,0.57
2023-03-15T06:45:35.446Z,0.45
2023-03-15T06:48:02.042Z,0.70
2023-03-15T06:50:34.417Z,0.30
2023-03-15T06:53:11.085Z,0.25
2023-03-15T06:55:37.566Z,0.38
2023-03-15T06:58:04.120Z,0.45
2023-03-15T07:00:31.193Z,0.32
2023-03-15T07:02:57.878Z,0.37
2023-03-15T07:05:24.576Z,0.60
2023-03-15T07:07:50.999Z,0.60
2023-03-15T07:10:17.703Z,0.45
2023-03-15T07:12:44.169Z,0.45
2023-03-15T07:15:11.919Z,0.37
2023-03-15T07:17:38.584Z,0.65
2023-03-15T07:20:06.081Z,0.43
2023-03-15T07:22:33.528Z,0.70
2023-03-15T07:25:00.124Z,0.50
2023-03-15T07:27:26.675Z,0.60
2023-03-15T07:29:53.250Z,0.60
2023-03-15T07:32:20.076Z,0.55
2023-03-15T07:34:46.620Z,0.60
2023-03-15T07:37:13.313Z,0.50
2023-03-15T07:39:39.794Z,0.60
2023-03-15T07:42:07.333Z,0.65
2023-03-15T07:44:33.840Z,0.50
2023-03-15T07:47:00.773Z,0.70
2023-03-15T07:49:27.362Z,0.40
2023-03-15T07:51:53.856Z,0.73
2023-03-15T07:54:21.035Z,0.80
2023-03-15T07:56:47.572Z,0.50
2023-03-15T07:59:14.135Z,0.30
2023-03-15T08:01:40.715Z,0.23
2023-03-15T08:04:07.296Z,0.32
2023-03-15T08:06:33.888Z,0.20
2023-03-15T08:09:01.638Z,0.50
2023-03-15T08:11:28.161Z,0.40
2023-03-15T08:13:54.673Z,0.30
2023-03-15T08:16:21.324Z,0.20
2023-03-15T08:18:47.808Z,0.20
2023-03-15T08:21:14.331Z,0.10
2023-03-15T08:23:40.789Z,0.30
2023-03-15T08:26:07.361Z,0.20
2023-03-15T08:28:33.860Z,0.25
2023-03-15T08:31:00.491Z,0.10
2023-03-15T08:33:30.157Z,0.30
2023-03-15T08:35:56.889Z,0.35
2023-03-15T08:38:23.476Z,0.20
2023-03-15T08:40:49.971Z,0.10
2023-03-15T08:43:16.549Z,0.30
2023-03-15T08:45:59.766Z,0.20
2023-03-15T08:48:27.336Z,0.10
2023-03-15T08:50:53.871Z,0.10
2023-03-15T08:53:20.912Z,0.25
2023-03-15T08:55:49.204Z,0.50
2023-03-15T08:58:15.768Z,0.20
2023-03-15T09:00:42.279Z,0.20
2023-03-15T09:03:08.816Z,0.20
2023-03-15T09:05:36.390Z,0.20
2023-03-15T09:08:03.032Z,0.10
2023-03-15T09:10:29.544Z,0.30
2023-03-15T09:12:56.094Z,0.40
2023-03-15T09:15:22.754Z,0.50
2023-03-15T09:17:51.673Z,0.20
2023-03-15T09:20:21.934Z,0.20
2023-03-15T09:22:56.578Z,0.20
2023-03-15T09:25:24.235Z,0.40
2023-03-15T09:27:51.628Z,0.10
2023-03-15T09:30:18.516Z,0.17
2023-03-15T09:32:45.883Z,0.15
2023-03-15T09:35:17.951Z,0.20
2023-03-15T09:37:44.871Z,0.25
2023-03-15T09:40:22.391Z,0.83
2023-03-15T09:42:52.045Z,0.20
2023-03-15T09:45:25.516Z,0.30
2023-03-15T09:48:01.087Z,0.20
2023-03-15T09:50:48.689Z,0.10
2023-03-15T09:53:55.610Z,0.20
2023-03-15T09:56:36.532Z,0.10
2023-03-15T09:59:03.698Z,0.20
2023-03-15T10:01:38.110Z,0.30
2023-03-15T10:04:23.499Z,0.20
2023-03-15T10:06:55.424Z,0.20
2023-03-15T10:09:28.025Z,0.10
2023-03-15T10:12:06.768Z,0.10
2023-03-15T10:14:59.990Z,0.10
2023-03-15T10:18:03.111Z,0.60
2023-03-15T10:20:35.978Z,0.20
2023-03-15T10:23:10.648Z,0.40
2023-03-15T10:25:38.942Z,0.10
2023-03-15T10:28:10.754Z,0.20
2023-03-15T10:30:40.446Z,0.13
2023-03-15T10:33:19.431Z,0.20
2023-03-15T10:35:46.133Z,0.20
2023-03-15T10:38:17.362Z,0.40
2023-03-15T10:40:50.132Z,0.10
2023-03-15T10:43:36.974Z,0.20
2023-03-15T10:46:12.194Z,0.07
2023-03-15T10:48:53.642Z,0.22
2023-03-15T10:51:33.541Z,0.20
2023-03-15T10:54:27.080Z,0.20
2023-03-15T10:57:14.329Z,0.10
2023-03-15T10:59:55.369Z,0.10
2023-03-15T11:02:24.182Z,0.30
2023-03-15T11:04:59.703Z,0.13
2023-03-15T11:07:26.190Z,0.20
2023-03-15T11:09:55.225Z,0.20
2023-03-15T11:12:27.807Z,0.10
2023-03-15T11:15:02.199Z,0.10
2023-03-15T11:17:32.886Z,0.40
2023-03-15T11:20:30.845Z,0.17
2023-03-15T11:22:59.999Z,0.30
2023-03-15T11:25:31.419Z,0.13
2023-03-15T11:27:58.977Z,0.20
2023-03-15T11:30:30.250Z,0.10
2023-03-15T11:33:04.614Z,0.40
2023-03-15T11:35:48.638Z,0.20
2023-03-15T11:38:26.641Z,0.20
2023-03-15T11:40:58.682Z,0.13
2023-03-15T11:43:29.785Z,0.20
2023-03-15T11:46:05.761Z,0.30
2023-03-15T11:48:42.352Z,0.10
2023-03-15T11:51:11.975Z,0.10
2023-03-15T11:53:46.439Z,0.10
2023-03-15T11:56:25.869Z,0.30
2023-03-15T11:59:04.996Z,0.40
2023-03-15T12:01:33.626Z,0.10
2023-03-15T12:04:25.181Z,0.20
2023-03-15T12:06:56.762Z,0.10
2023-03-15T12:09:32.573Z,0.17
2023-03-15T12:12:04.747Z,0.10
2023-03-15T12:14:36.929Z,0.25
2023-03-15T12:17:24.871Z,0.10
2023-03-15T12:20:12.215Z,0.17
2023-03-15T12:22:48.351Z,0.20
2023-03-15T12:25:19.942Z,0.10
2023-03-15T12:27:51.160Z,0.10
2023-03-15T12:30:23.453Z,0.40
2023-03-15T12:32:55.416Z,0.30
2023-03-15T12:35:28.105Z,0.10
2023-03-15T12:37:56.021Z,0.10
2023-03-15T12:40:34.606Z,0.20
2023-03-15T12:43:02.353Z,0.10
2023-03-15T12:45:40.527Z,0.10
2023-03-15T12:48:08.747Z,0.10
2023-03-15T12:50:44.707Z,0.38
2023-03-15T12:53:37.163Z,0.43
2023-03-15T12:56:19.097Z,0.10
2023-03-15T12:58:51.402Z,0.17
2023-03-15T13:01:18.737Z,0.38
2023-03-15T13:03:45.826Z,0.20
2023-03-15T13:06:34.272Z,0.20
2023-03-15T13:09:12.011Z,0.30
2023-03-15T13:12:08.854Z,0.30
2023-03-15T13:14:46.562Z,0.20
2023-03-15T13:17:28.389Z,0.20
2023-03-15T13:20:11.251Z,0.20
2023-03-15T13:23:06.432Z,0.40
2023-03-15T13:25:47.854Z,0.10
2023-03-15T13:28:24.588Z,0.10
2023-03-15T13:30:55.733Z,0.25
2023-03-15T13:33:31.918Z,0.50
2023-03-15T13:35:58.591Z,0.20
2023-03-15T13:38:25.298Z,0.22
2023-03-15T13:40:52.148Z,0.40
2023-03-15T13:43:18.677Z,0.10
2023-03-15T13:45:45.413Z,0.10
2023-03-15T13:48:13.302Z,0.20
2023-03-15T13:50:40.283Z,0.20
2023-03-15T13:53:06.922Z,0.10
2023-03-15T13:55:36.121Z,0.15
2023-03-15T13:58:08.146Z,0.20
2023-03-15T14:00:36.837Z,0.20
2023-03-15T14:03:13.243Z,0.20
2023-03-15T14:05:50.114Z,0.10
2023-03-15T14:08:29.740Z,0.20
2023-03-15T14:11:07.468Z,0.17
2023-03-15T14:13:46.172Z,0.10
2023-03-15T14:17:01.268Z,0.20
2023-03-15T14:19:32.452Z,0.30
2023-03-15T14:22:01.208Z,0.20
2023-03-15T14:24:38.391Z,0.17
2023-03-15T14:27:09.336Z,0.43
2023-03-15T14:29:37.955Z,0.20
2023-03-15T14:32:22.695Z,0.60
2023-03-15T14:34:49.770Z,0.10
2023-03-15T14:37:40.084Z,0.22
2023-03-15T14:40:15.785Z,0.17
2023-03-15T14:42:43.592Z,0.10
2023-03-15T14:45:12.464Z,0.20
2023-03-15T14:47:55.532Z,0.10
2023-03-15T14:50:26.250Z,0.20
2023-03-15T14:52:54.363Z,0.20
2023-03-15T14:55:29.273Z,0.20
2023-03-15T14:57:55.919Z,0.08
2023-03-15T15:00:22.682Z,0.20
2023-03-15T15:02:52.592Z,0.20
2023-03-15T15:05:27.053Z,0.10
2023-03-15T15:08:02.004Z,0.10
2023-03-15T15:10:28.706Z,0.20
2023-03-15T15:13:05.524Z,0.20
2023-03-15T15:15:40.754Z,0.20
2023-03-15T15:18:18.315Z,0.27
2023-03-15T15:20:45.529Z,0.10
2023-03-15T15:23:36.113Z,0.20
2023-03-15T15:26:06.951Z,0.10
2023-03-15T15:28:37.044Z,0.25
2023-03-15T15:31:07.008Z,0.10
2023-03-15T15:33:34.072Z,0.20
2023-03-15T15:36:01.083Z,0.20
2023-03-15T15:38:39.590Z,0.20
2023-03-15T15:41:12.935Z,0.40
2023-03-15T15:43:39.736Z,0.10
2023-03-15T15:46:06.226Z,0.10
2023-03-15T15:48:32.836Z,0.20
2023-03-15T15:50:59.422Z,0.20
2023-03-15T15:53:30.204Z,0.20
2023-03-15T15:55:57.176Z,0.30
2023-03-15T15:58:23.790Z,0.20
2023-03-15T16:00:50.997Z,0.20
2023-03-15T16:03:17.717Z,0.20
2023-03-15T16:05:44.648Z,0.20
2023-03-15T16:08:20.864Z,0.40
2023-03-15T16:10:47.311Z,0.45
2023-03-15T16:13:13.902Z,0.25
2023-03-15T16:15:40.417Z,0.45
2023-03-15T16:18:11.280Z,0.35
2023-03-15T16:20:40.208Z,0.30
2023-03-15T16:23:10.633Z,0.30
2023-03-15T16:25:37.299Z,0.30
2023-03-15T16:28:04.456Z,0.20
2023-03-15T16:30:33.536Z,0.25
2023-03-15T16:33:00.511Z,1.07
2023-03-15T16:35:34.929Z,0.17
2023-03-15T16:38:05.138Z,0.30
2023-03-15T16:40:35.362Z,0.20
2023-03-15T16:43:02.083Z,0.20
2023-03-15T16:45:28.716Z,0.27
2023-03-15T16:47:56.467Z,0.30
2023-03-15T16:50:23.348Z,0.40
2023-03-15T16:52:54.471Z,0.20
2023-03-15T16:55:27.190Z,0.30
2023-03-15T16:57:54.083Z,0.40
2023-03-15T17:00:21.333Z,0.30
2023-03-15T17:02:49.730Z,0.20
2023-03-15T17:05:20.809Z,0.20
2023-03-15T17:07:49.766Z,0.40
2023-03-15T17:10:23.300Z,0.20
2023-03-15T17:12:55.083Z,0.80
2023-03-15T17:15:24.871Z,0.30
2023-03-15T17:17:53.932Z,0.32
2023-03-15T17:20:28.583Z,0.40
2023-03-15T17:23:05.078Z,0.20
2023-03-15T17:25:32.483Z,0.20
2023-03-15T17:28:00.221Z,0.30
2023-03-15T17:30:33.650Z,0.30
2023-03-15T17:33:00.769Z,0.30
2023-03-15T17:35:31.690Z,0.30
2023-03-15T17:37:58.396Z,0.20
2023-03-15T17:40:27.772Z,0.25
2023-03-15T17:42:56.759Z,0.35
2023-03-15T17:45:25.980Z,0.40
2023-03-15T17:47:54.242Z,0.50
2023-03-15T17:50:23.222Z,0.50
2023-03-15T17:52:55.351Z,0.50
2023-03-15T17:55:25.231Z,0.35
2023-03-15T17:57:55.232Z,1.20
2023-03-15T18:00:23.571Z,0.70
2023-03-15T18:02:55.594Z,0.85
2023-03-15T18:05:27.555Z,0.60
2023-03-15T18:07:59.300Z,0.50
2023-03-15T18:10:34.385Z,0.65
2023-03-15T18:13:02.297Z,0.37
2023-03-15T18:15:29.364Z,0.30
2023-03-15T18:17:56.074Z,0.30
2023-03-15T18:20:24.321Z,0.40
2023-03-15T18:22:52.195Z,0.47
2023-03-15T18:25:22.098Z,0.60
2023-03-15T18:27:49.475Z,0.20
2023-03-15T18:30:22.323Z,0.20
2023-03-15T18:32:50.596Z,0.10
2023-03-15T18:35:20.425Z,0.20
2023-03-15T18:37:47.299Z,0.23
2023-03-15T18:40:17.599Z,0.30
2023-03-15T18:42:44.968Z,0.20
2023-03-15T18:45:17.002Z,0.50
2023-03-15T18:47:43.759Z,0.50
2023-03-15T18:50:11.203Z,0.77
2023-03-15T18:52:37.992Z,0.82
2023-03-15T18:55:07.731Z,0.30
2023-03-15T18:57:36.172Z,0.40
2023-03-15T19:00:13.109Z,0.30
2023-03-15T19:02:45.750Z,0.20
2023-03-15T19:05:14.087Z,0.32
2023-03-15T19:07:41.004Z,0.40
2023-03-15T19:10:10.730Z,0.70
2023-03-15T19:12:37.653Z,0.50
2023-03-15T19:15:05.723Z,1.27
2023-03-15T19:17:32.766Z,0.90
2023-03-15T19:19:59.226Z,1.55
2023-03-15T19:22:26.695Z,1.45
2023-03-15T19:24:53.279Z,1.55
2023-03-15T19:27:19.973Z,1.83
2023-03-15T19:29:46.705Z,1.40
2023-03-15T19:32:13.461Z,1.50
2023-03-15T19:34:40.113Z,2.38
2023-03-15T19:37:06.691Z,2.53
2023-03-15T19:39:33.270Z,1.97
2023-03-15T19:42:00.241Z,1.73
2023-03-15T19:44:27.691Z,1.70
2023-03-15T19:46:54.318Z,1.85
2023-03-15T19:49:20.907Z,1.73
2023-03-15T19:51:47.379Z,1.50
2023-03-15T19:54:13.835Z,1.80
2023-03-15T19:56:41.280Z,2.30
2023-03-15T19:59:08.437Z,2.30
2023-03-15T20:01:35.029Z,2.90
2023-03-15T20:04:01.734Z,3.20
2023-03-15T20:06:28.288Z,3.22
2023-03-15T20:08:55.779Z,2.78
2023-03-15T20:11:25.178Z,3.08
2023-03-15T20:13:55.002Z,2.33
2023-03-15T20:16:22.722Z,1.97
2023-03-15T20:18:51.409Z,1.88
2023-03-15T20:21:18.673Z,1.70
2023-03-15T20:23:47.101Z,1.67
2023-03-15T20:26:16.754Z,2.30
2023-03-15T20:28:44.793Z,3.03
2023-03-15T20:31:15.490Z,3.50
2023-03-15T20:33:43.316Z,3.05
2023-03-15T20:36:10.937Z,2.83
2023-03-15T20:38:38.089Z,2.92
2023-03-15T20:41:06.385Z,3.60
2023-03-15T20:43:33.510Z,3.33
2023-03-15T20:46:02.003Z,2.70
2023-03-15T20:48:30.699Z,2.60
2023-03-15T20:51:03.977Z,2.75
2023-03-15T20:53:32.458Z,2.87
2023-03-15T20:55:59.052Z,2.22
2023-03-15T20:58:26.190Z,2.30
2023-03-15T21:01:05.417Z,2.05
2023-03-15T21:03:34.321Z,2.85
2023-03-15T21:06:02.575Z,3.10
2023-03-15T21:08:29.744Z,3.15
2023-03-15T21:10:56.693Z,3.40
2023-03-15T21:13:24.033Z,2.95
2023-03-15T21:15:53.255Z,2.80
2023-03-15T21:18:22.557Z,3.33
2023-03-15T21:20:58.460Z,3.33
2023-03-15T21:23:28.265Z,2.60
2023-03-15T21:25:56.425Z,2.80
2023-03-15T21:28:24.072Z,2.85
2023-03-15T21:30:55.653Z,3.00
2023-03-15T21:33:24.863Z,2.28
2023-03-15T21:35:52.529Z,2.28
2023-03-15T21:38:22.632Z,2.13
2023-03-15T21:40:52.801Z,2.13
2023-03-15T21:43:20.023Z,1.70
2023-03-15T21:45:47.167Z,2.20
2023-03-15T21:48:14.216Z,1.70
2023-03-15T21:50:41.653Z,2.15
2023-03-15T21:53:08.357Z,1.63
2023-03-15T21:55:35.008Z,1.90
2023-03-15T21:58:02.459Z,1.88
2023-03-15T22:00:30.185Z,2.10
2023-03-15T22:02:56.716Z,1.73
2023-03-15T22:05:23.651Z,2.03
2023-03-15T22:07:50.217Z,1.70
2023-03-15T22:10:18.776Z,2.10
2023-03-15T22:12:45.617Z,1.90
2023-03-15T22:15:12.284Z,1.73
2023-03-15T22:17:38.868Z,2.20
2023-03-15T22:20:13.139Z,1.97
2023-03-15T22:22:39.656Z,2.08
2023-03-15T22:25:06.595Z,1.88
2023-03-15T22:27:33.119Z,1.70
2023-03-15T22:29:59.633Z,1.60
2023-03-15T22:32:26.130Z,1.90
2023-03-15T22:34:52.658Z,1.92
2023-03-15T22:37:19.213Z,1.60
2023-03-15T22:39:46.132Z,1.98
2023-03-15T22:42:12.610Z,1.40
2023-03-15T22:44:39.112Z,1.50
2023-03-15T22:47:05.631Z,1.63
2023-03-15T22:49:32.092Z,1.52
2023-03-15T22:51:58.631Z,1.27
2023-03-15T22:54:25.180Z,1.45
2023-03-15T22:56:51.682Z,1.60
2023-03-15T22:59:18.249Z,1.70
2023-03-15T23:01:44.818Z,1.80
2023-03-15T23:04:11.449Z,1.42
2023-03-15T23:06:38.025Z,1.40
2023-03-15T23:09:06.553Z,1.70
2023-03-15T23:11:33.298Z,1.65
2023-03-15T23:13:59.896Z,1.75
2023-03-15T23:16:26.522Z,1.73
2023-03-15T23:18:53.075Z,1.45
2023-03-15T23:21:19.721Z,1.53
2023-03-15T23:23:46.266Z,1.90
2023-03-15T23:26:14.428Z,1.60
2023-03-15T23:28:40.884Z,1.83
2023-03-15T23:31:07.965Z,1.70
2023-03-15T23:33:34.784Z,1.90
2023-03-15T23:36:02.720Z,2.10
2023-03-15T23:38:29.580Z,1.60
2023-03-15T23:40:57.963Z,1.65
2023-03-15T23:43:24.993Z,1.60
2023-03-15T23:45:55.916Z,1.50
2023-03-15T23:48:22.817Z,1.73
2023-03-15T23:50:57.235Z,1.42
2023-03-15T23:53:25.596Z,1.35
2023-03-15T23:55:53.000Z,1.45
2023-03-15T23:58:20.709Z,1.47
